createdAt,value
2022-08-03T00:00:27.728Z,9.10
2022-08-03T00:02:54.527Z,9.05
2022-08-03T00:05:21.427Z,10.10
2022-08-03T00:07:48.587Z,6.78
2022-08-03T00:10:17.173Z,11.25
2022-08-03T00:12:44.020Z,7.27
2022-08-03T00:15:15.026Z,7.45
2022-08-03T00:17:53.742Z,6.28
2022-08-03T00:20:22.142Z,6.97
2022-08-03T00:22:49.899Z,7.63
2022-08-03T00:25:17.616Z,7.30
2022-08-03T00:27:44.536Z,8.77
2022-08-03T00:30:11.906Z,9.27
2022-08-03T00:32:44.409Z,9.43
2022-08-03T00:35:18.075Z,8.90
2022-08-03T00:37:59.101Z,8.07
2022-08-03T00:40:26.560Z,13.13
2022-08-03T00:42:58.569Z,9.35
2022-08-03T00:45:32.275Z,7.65
2022-08-03T00:47:59.865Z,7.78
2022-08-03T00:50:28.749Z,11.63
2022-08-03T00:52:58.329Z,10.15
2022-08-03T00:55:25.946Z,8.73
2022-08-03T00:57:53.131Z,6.85
2022-08-03T01:00:27.678Z,6.43
2022-08-03T01:02:54.981Z,6.43
2022-08-03T01:05:22.196Z,8.05
2022-08-03T01:08:03.344Z,9.88
2022-08-03T01:10:41.873Z,10.45
2022-08-03T01:14:03.447Z,8.27
2022-08-03T01:16:28.069Z,11.77
2022-08-03T01:19:26.223Z,8.07
2022-08-03T01:22:25.026Z,8.30
2022-08-03T01:25:36.531Z,7.10
2022-08-03T01:28:29.970Z,8.30
2022-08-03T01:31:00.311Z,9.73
2022-08-03T01:33:36.710Z,6.90
2022-08-03T01:36:11.981Z,6.88
2022-08-03T01:38:43.858Z,7.10
2022-08-03T01:41:46.900Z,7.68
2022-08-03T01:44:29.918Z,8.53
2022-08-03T01:47:02.394Z,6.45
2022-08-03T01:49:33.758Z,5.38
2022-08-03T01:52:04.065Z,4.88
2022-08-03T01:54:36.739Z,5.10
2022-08-03T01:57:04.761Z,5.30
2022-08-03T01:59:35.464Z,5.80
2022-08-03T02:02:29.094Z,5.60
2022-08-03T02:04:53.907Z,4.63
2022-08-03T02:07:20.991Z,5.78
2022-08-03T02:09:51.616Z,5.63
2022-08-03T02:12:20.735Z,5.80
2022-08-03T02:14:50.005Z,5.93
2022-08-03T02:17:16.807Z,5.05
2022-08-03T02:19:44.755Z,4.80
2022-08-03T02:22:14.496Z,6.13
2022-08-03T02:24:41.600Z,8.35
2022-08-03T02:27:21.486Z,8.73
2022-08-03T02:29:53.405Z,7.07
2022-08-03T02:32:25.354Z,9.93
2022-08-03T02:34:56.000Z,7.87
2022-08-03T02:37:27.400Z,9.65
2022-08-03T02:39:59.501Z,5.72
2022-08-03T02:42:28.552Z,8.50
2022-08-03T02:44:58.754Z,6.85
2022-08-03T02:47:28.640Z,7.50
2022-08-03T02:50:16.979Z,8.35
2022-08-03T02:52:46.341Z,8.90
2022-08-03T02:55:16.110Z,6.95
2022-08-03T02:57:43.997Z,8.68
2022-08-03T03:00:11.433Z,6.83
2022-08-03T03:02:40.470Z,7.45
2022-08-03T03:05:56.336Z,9.15
2022-08-03T03:07:59.197Z,9.80
2022-08-03T03:10:26.393Z,8.55
2022-08-03T03:12:58.179Z,10.27
2022-08-03T03:15:26.819Z,8.43
2022-08-03T03:17:55.622Z,11.32
2022-08-03T03:20:29.269Z,9.27
2022-08-03T03:23:00.324Z,11.65
2022-08-03T03:25:29.075Z,11.50
2022-08-03T03:27:56.186Z,12.23
2022-08-03T03:30:25.565Z,10.80
2022-08-03T03:32:52.793Z,12.48
2022-08-03T03:35:19.790Z,12.85
2022-08-03T03:37:46.775Z,12.37
2022-08-03T03:40:14.423Z,15.65
2022-08-03T03:42:41.342Z,13.95
2022-08-03T03:45:08.959Z,12.95
2022-08-03T03:47:35.986Z,11.75
2022-08-03T03:50:04.610Z,11.23
2022-08-03T03:52:34.452Z,9.80
2022-08-03T03:55:01.882Z,11.27
2022-08-03T03:57:29.608Z,10.85
2022-08-03T03:59:56.517Z,10.75
2022-08-03T04:02:23.381Z,8.43
2022-08-03T04:05:09.008Z,12.13
2022-08-03T04:08:08.002Z,10.60
2022-08-03T04:10:55.919Z,8.95
2022-08-03T04:13:23.170Z,9.25
2022-08-03T04:15:50.786Z,9.43
2022-08-03T04:18:19.133Z,9.55
2022-08-03T04:20:48.809Z,12.68
2022-08-03T04:23:17.658Z,9.23
2022-08-03T04:25:46.330Z,10.30
2022-08-03T04:28:30.594Z,10.97
2022-08-03T04:30:59.748Z,9.95
2022-08-03T04:33:29.697Z,8.77
2022-08-03T04:36:01.623Z,7.45
2022-08-03T04:38:32.948Z,6.90
2022-08-03T04:41:01.562Z,7.47
2022-08-03T04:43:32.778Z,10.60
2022-08-03T04:46:01.769Z,8.02
2022-08-03T04:48:28.855Z,6.93
2022-08-03T04:50:56.020Z,8.18
2022-08-03T04:53:22.921Z,6.17
2022-08-03T04:55:50.278Z,9.13
2022-08-03T04:58:17.190Z,8.63
2022-08-03T05:00:45.657Z,9.57
2022-08-03T05:03:20.245Z,5.82
2022-08-03T05:06:01.745Z,4.97
2022-08-03T05:08:36.372Z,6.05
2022-08-03T05:11:13.404Z,6.88
2022-08-03T05:13:40.210Z,6.63
2022-08-03T05:16:07.048Z,7.25
2022-08-03T05:18:33.756Z,7.33
2022-08-03T05:21:00.510Z,7.35
2022-08-03T05:23:27.661Z,7.22
2022-08-03T05:25:54.390Z,11.50
2022-08-03T05:28:21.280Z,6.43
2022-08-03T05:30:48.179Z,5.40
2022-08-03T05:33:15.035Z,6.68
2022-08-03T05:36:01.034Z,7.10
2022-08-03T05:38:34.117Z,5.53
2022-08-03T05:41:21.524Z,6.28
2022-08-03T05:43:48.144Z,7.87
2022-08-03T05:46:15.448Z,8.10
2022-08-03T05:48:43.012Z,7.82
2022-08-03T05:51:11.891Z,7.40
2022-08-03T05:53:41.110Z,9.93
2022-08-03T05:56:13.890Z,8.57
2022-08-03T05:58:47.834Z,10.60
2022-08-03T06:01:16.674Z,8.27
2022-08-03T06:03:44.425Z,6.80
2022-08-03T06:06:11.788Z,8.02
2022-08-03T06:08:39.038Z,8.00
2022-08-03T06:11:05.938Z,7.40
2022-08-03T06:13:33.183Z,9.00
2022-08-03T06:15:59.935Z,8.00
2022-08-03T06:18:26.695Z,8.60
2022-08-03T06:20:54.320Z,7.93
2022-08-03T06:23:23.847Z,9.55
2022-08-03T06:26:09.449Z,9.13
2022-08-03T06:28:51.842Z,7.97
2022-08-03T06:31:21.446Z,8.20
2022-08-03T06:34:33.865Z,8.07
2022-08-03T06:36:35.220Z,7.20
2022-08-03T06:39:02.944Z,7.07
2022-08-03T06:41:29.777Z,8.80
2022-08-03T06:44:07.950Z,8.10
2022-08-03T06:46:35.559Z,7.20
2022-08-03T06:49:02.361Z,7.75
2022-08-03T06:52:05.404Z,9.65
2022-08-03T06:54:16.465Z,7.95
2022-08-03T06:56:43.300Z,7.45
2022-08-03T06:59:10.059Z,7.40
2022-08-03T07:01:56.855Z,10.23
2022-08-03T07:04:23.636Z,7.63
2022-08-03T07:06:50.344Z,7.65
2022-08-03T07:09:17.123Z,7.05
2022-08-03T07:11:43.904Z,7.97
2022-08-03T07:14:10.666Z,7.70
2022-08-03T07:16:37.394Z,7.82
2022-08-03T07:19:04.148Z,10.38
2022-08-03T07:21:30.896Z,8.43
2022-08-03T07:23:57.759Z,7.30
2022-08-03T07:26:24.575Z,8.38
2022-08-03T07:28:51.330Z,6.80
2022-08-03T07:31:18.174Z,7.75
2022-08-03T07:33:44.924Z,6.30
2022-08-03T07:36:11.923Z,6.03
2022-08-03T07:38:38.694Z,7.32
2022-08-03T07:41:05.583Z,7.20
2022-08-03T07:43:32.382Z,8.95
2022-08-03T07:45:59.343Z,7.50
2022-08-03T07:48:26.147Z,6.67
2022-08-03T07:50:53.099Z,7.85
2022-08-03T07:53:20.025Z,5.75
2022-08-03T07:55:46.850Z,8.55
2022-08-03T07:58:21.976Z,6.13
2022-08-03T08:00:53.150Z,5.63
2022-08-03T08:03:21.919Z,6.35
2022-08-03T08:05:49.488Z,6.63
2022-08-03T08:08:16.405Z,14.80
2022-08-03T08:10:43.330Z,5.70
2022-08-03T08:13:25.454Z,5.83
2022-08-03T08:15:52.206Z,4.90
2022-08-03T08:18:19.002Z,7.20
2022-08-03T08:20:45.900Z,5.53
2022-08-03T08:23:37.854Z,4.65
2022-08-03T08:25:59.619Z,4.90
2022-08-03T08:28:32.808Z,5.93
2022-08-03T08:31:01.338Z,6.47
2022-08-03T08:33:42.201Z,8.80
2022-08-03T08:36:15.836Z,6.60
2022-08-03T08:38:45.051Z,5.47
2022-08-03T08:41:14.009Z,6.10
2022-08-03T08:43:43.097Z,5.40
2022-08-03T08:46:22.778Z,7.13
2022-08-03T08:48:51.386Z,7.60
2022-08-03T08:51:20.566Z,5.93
2022-08-03T08:53:52.605Z,5.65
2022-08-03T08:56:22.839Z,4.65
2022-08-03T08:58:53.852Z,6.85
2022-08-03T09:01:21.835Z,6.78
2022-08-03T09:03:48.856Z,4.40
2022-08-03T09:06:16.518Z,6.25
2022-08-03T09:08:43.557Z,5.80
2022-08-03T09:11:11.105Z,5.15
2022-08-03T09:13:39.918Z,5.75
2022-08-03T09:16:09.311Z,6.83
2022-08-03T09:18:36.074Z,6.78
2022-08-03T09:21:32.273Z,6.05
2022-08-03T09:24:04.194Z,6.10
2022-08-03T09:26:36.686Z,5.25
2022-08-03T09:29:13.814Z,4.93
2022-08-03T09:31:45.469Z,4.72
2022-08-03T09:34:17.785Z,5.75
2022-08-03T09:36:51.597Z,6.20
2022-08-03T09:39:42.101Z,4.78
2022-08-03T09:42:14.634Z,5.17
2022-08-03T09:44:47.410Z,5.32
2022-08-03T09:47:16.990Z,8.35
2022-08-03T09:50:02.324Z,8.40
2022-08-03T09:52:50.180Z,6.63
2022-08-03T09:56:34.516Z,6.30
2022-08-03T09:58:12.780Z,7.63
2022-08-03T10:00:57.817Z,5.03
2022-08-03T10:03:26.184Z,5.45
2022-08-03T10:05:58.982Z,7.00
2022-08-03T10:08:26.634Z,5.13
2022-08-03T10:10:58.575Z,5.60
2022-08-03T10:13:27.386Z,5.35
2022-08-03T10:16:21.430Z,5.43
2022-08-03T10:18:40.921Z,4.70
2022-08-03T10:21:10.634Z,4.97
2022-08-03T10:23:39.705Z,5.18
2022-08-03T10:26:08.272Z,4.70
2022-08-03T10:28:44.468Z,4.32
2022-08-03T10:31:14.249Z,5.05
2022-08-03T10:33:52.845Z,6.30
2022-08-03T10:36:24.654Z,5.38
2022-08-03T10:38:53.799Z,4.40
2022-08-03T10:41:22.681Z,4.03
2022-08-03T10:44:05.465Z,5.85
2022-08-03T10:46:34.466Z,4.47
2022-08-03T10:49:02.219Z,5.55
2022-08-03T10:51:32.252Z,4.57
2022-08-03T10:54:01.782Z,4.10
2022-08-03T10:56:53.395Z,4.18
2022-08-03T10:59:46.023Z,4.30
2022-08-03T11:02:14.345Z,4.10
2022-08-03T11:04:42.214Z,4.10
2022-08-03T11:07:25.195Z,4.70
2022-08-03T11:09:56.621Z,4.20
2022-08-03T11:12:32.245Z,5.30
2022-08-03T11:15:07.182Z,4.35
2022-08-03T11:17:46.859Z,4.32
2022-08-03T11:20:43.888Z,6.63
2022-08-03T11:23:10.891Z,4.05
2022-08-03T11:26:08.527Z,4.63
2022-08-03T11:28:35.346Z,4.20
2022-08-03T11:31:48.563Z,4.95
2022-08-03T11:34:14.292Z,3.95
2022-08-03T11:37:23.131Z,4.45
2022-08-03T11:39:54.475Z,4.97
2022-08-03T11:42:24.249Z,4.10
2022-08-03T11:44:59.185Z,6.30
2022-08-03T11:47:29.969Z,3.88
2022-08-03T11:50:02.161Z,3.90
2022-08-03T11:52:36.196Z,10.47
2022-08-03T11:55:09.822Z,4.07
2022-08-03T11:59:10.904Z,3.90
2022-08-03T12:00:32.422Z,4.38
2022-08-03T12:03:06.471Z,4.10
2022-08-03T12:05:42.015Z,4.30
2022-08-03T12:08:32.071Z,4.85
2022-08-03T12:11:04.552Z,4.65
2022-08-03T12:14:50.041Z,4.20
2022-08-03T12:16:48.719Z,4.63
2022-08-03T12:19:16.300Z,5.27
2022-08-03T12:21:57.318Z,4.28
2022-08-03T12:24:24.532Z,4.10
2022-08-03T12:26:58.250Z,4.15
2022-08-03T12:29:26.888Z,3.70
2022-08-03T12:31:53.722Z,4.60
2022-08-03T12:34:20.692Z,4.20
2022-08-03T12:36:56.606Z,4.22
2022-08-03T12:39:25.528Z,3.70
2022-08-03T12:41:56.878Z,4.97
2022-08-03T12:44:32.155Z,5.93
2022-08-03T12:46:59.538Z,4.55
2022-08-03T12:49:27.102Z,4.97
2022-08-03T12:51:54.085Z,5.22
2022-08-03T12:54:24.869Z,6.38
2022-08-03T12:57:15.696Z,6.37
2022-08-03T12:59:53.232Z,4.00
2022-08-03T13:02:24.792Z,4.55
2022-08-03T13:04:54.003Z,3.88
2022-08-03T13:07:22.591Z,4.75
2022-08-03T13:09:56.378Z,4.17
2022-08-03T13:12:25.596Z,5.25
2022-08-03T13:14:56.319Z,3.80
2022-08-03T13:17:23.346Z,4.60
2022-08-03T13:19:50.934Z,3.65
2022-08-03T13:22:21.784Z,3.53
2022-08-03T13:24:50.781Z,4.50
2022-08-03T13:28:02.335Z,3.92
2022-08-03T13:30:05.514Z,3.88
2022-08-03T13:32:33.929Z,3.42
2022-08-03T13:35:02.772Z,6.60
2022-08-03T13:37:32.315Z,4.30
2022-08-03T13:40:02.898Z,3.75
2022-08-03T13:42:35.022Z,8.00
2022-08-03T13:45:02.682Z,5.32
2022-08-03T13:47:29.679Z,3.50
2022-08-03T13:50:01.226Z,4.43
2022-08-03T13:52:31.741Z,4.68
2022-08-03T13:54:58.929Z,3.60
2022-08-03T13:58:03.905Z,4.43
2022-08-03T14:00:13.126Z,4.50
2022-08-03T14:02:44.561Z,4.28
2022-08-03T14:05:11.403Z,3.78
2022-08-03T14:07:38.172Z,4.10
2022-08-03T14:10:05.356Z,4.13
2022-08-03T14:12:32.110Z,3.90
2022-08-03T14:15:01.570Z,4.57
2022-08-03T14:17:28.643Z,3.88
2022-08-03T14:20:36.425Z,4.18
2022-08-03T14:22:56.818Z,4.00
2022-08-03T14:25:23.662Z,5.10
2022-08-03T14:27:50.592Z,3.97
2022-08-03T14:30:17.450Z,3.90
2022-08-03T14:32:44.333Z,4.57
2022-08-03T14:35:11.081Z,4.00
2022-08-03T14:37:37.961Z,3.50
2022-08-03T14:40:05.846Z,4.32
2022-08-03T14:42:32.944Z,5.38
2022-08-03T14:45:03.586Z,4.85
2022-08-03T14:47:34.468Z,5.15
2022-08-03T14:50:32.908Z,5.60
2022-08-03T14:53:06.016Z,3.63
2022-08-03T14:55:38.994Z,5.07
2022-08-03T14:58:20.688Z,3.65
2022-08-03T15:00:49.267Z,4.25
2022-08-03T15:03:17.109Z,3.50
2022-08-03T15:05:44.663Z,3.50
2022-08-03T15:08:11.486Z,3.50
2022-08-03T15:10:44.086Z,4.28
2022-08-03T15:13:12.274Z,3.97
2022-08-03T15:15:39.110Z,3.33
2022-08-03T15:18:05.903Z,3.83
2022-08-03T15:20:43.796Z,3.72
2022-08-03T15:23:13.082Z,3.47
2022-08-03T15:26:06.549Z,3.80
2022-08-03T15:28:26.900Z,3.63
2022-08-03T15:30:53.863Z,4.35
2022-08-03T15:33:20.892Z,3.95
2022-08-03T15:35:48.099Z,4.28
2022-08-03T15:38:15.035Z,3.63
2022-08-03T15:40:42.057Z,3.67
2022-08-03T15:43:09.158Z,3.45
2022-08-03T15:45:37.111Z,5.20
2022-08-03T15:48:07.096Z,3.83
2022-08-03T15:50:34.108Z,3.60
2022-08-03T15:53:00.922Z,3.60
2022-08-03T15:55:27.879Z,3.40
2022-08-03T15:59:03.928Z,4.30
2022-08-03T16:00:42.985Z,4.10
2022-08-03T16:03:10.520Z,4.75
2022-08-03T16:05:38.030Z,3.30
2022-08-03T16:08:09.057Z,3.50
2022-08-03T16:10:40.795Z,4.10
2022-08-03T16:13:09.122Z,4.05
2022-08-03T16:15:37.454Z,3.60
2022-08-03T16:18:07.085Z,3.50
2022-08-03T16:20:35.365Z,3.75
2022-08-03T16:23:11.525Z,4.22
2022-08-03T16:25:41.927Z,4.28
2022-08-03T16:28:14.686Z,5.80
2022-08-03T16:30:44.017Z,4.90
2022-08-03T16:33:17.071Z,5.72
2022-08-03T16:35:46.098Z,3.75
2022-08-03T16:38:18.541Z,4.45
2022-08-03T16:40:47.224Z,5.55
2022-08-03T16:43:18.253Z,3.73
2022-08-03T16:45:47.325Z,3.53
2022-08-03T16:48:19.659Z,4.20
2022-08-03T16:50:47.027Z,3.60
2022-08-03T16:53:16.653Z,4.05
2022-08-03T16:55:54.013Z,4.53
2022-08-03T16:58:34.303Z,3.63
2022-08-03T17:01:24.778Z,4.82
2022-08-03T17:04:03.173Z,3.40
2022-08-03T17:06:37.123Z,4.15
2022-08-03T17:09:09.047Z,4.33
2022-08-03T17:11:44.146Z,3.63
2022-08-03T17:14:16.776Z,3.50
2022-08-03T17:16:52.899Z,4.32
2022-08-03T17:19:24.101Z,4.00
2022-08-03T17:22:16.060Z,4.30
2022-08-03T17:24:51.971Z,3.80
2022-08-03T17:28:50.616Z,3.85
2022-08-03T17:30:19.215Z,3.60
2022-08-03T17:32:56.996Z,3.75
2022-08-03T17:35:34.683Z,3.67
2022-08-03T17:38:09.022Z,4.25
2022-08-03T17:40:48.288Z,5.88
2022-08-03T17:44:13.708Z,3.55
2022-08-03T17:46:07.227Z,3.63
2022-08-03T17:48:41.539Z,4.10
2022-08-03T17:51:34.525Z,3.78
2022-08-03T17:54:31.080Z,5.72
2022-08-03T17:57:22.552Z,4.40
2022-08-03T18:00:27.925Z,3.97
2022-08-03T18:03:24.378Z,9.20
2022-08-03T18:06:11.276Z,4.20
2022-08-03T18:08:50.463Z,4.53
2022-08-03T18:11:21.691Z,5.75
2022-08-03T18:14:15.984Z,5.63
2022-08-03T18:17:00.283Z,4.63
2022-08-03T18:20:01.874Z,4.68
2022-08-03T18:22:21.321Z,4.90
2022-08-03T18:24:53.344Z,7.55
2022-08-03T18:27:22.383Z,5.50
2022-08-03T18:29:51.135Z,4.23
2022-08-03T18:32:19.035Z,8.25
2022-08-03T18:34:53.065Z,5.80
2022-08-03T18:37:25.316Z,5.30
2022-08-03T18:39:58.129Z,4.47
2022-08-03T18:42:26.184Z,5.60
2022-08-03T18:44:56.459Z,5.03
2022-08-03T18:47:50.901Z,4.35
2022-08-03T18:50:30.583Z,4.47
2022-08-03T18:53:19.634Z,5.22
2022-08-03T18:56:02.774Z,7.00
2022-08-03T18:58:52.343Z,4.57
2022-08-03T19:01:58.575Z,6.75
2022-08-03T19:04:46.700Z,4.35
2022-08-03T19:07:25.949Z,5.30
2022-08-03T19:09:59.329Z,4.70
2022-08-03T19:12:39.514Z,7.80
2022-08-03T19:15:10.267Z,4.43
2022-08-03T19:17:50.355Z,3.63
2022-08-03T19:20:34.907Z,3.85
2022-08-03T19:23:01.932Z,5.00
2022-08-03T19:25:35.143Z,5.72
2022-08-03T19:28:06.015Z,4.03
2022-08-03T19:30:46.236Z,4.95
2022-08-03T19:33:20.906Z,8.70
2022-08-03T19:35:55.216Z,4.20
2022-08-03T19:38:28.224Z,5.15
2022-08-03T19:41:03.177Z,4.53
2022-08-03T19:43:53.074Z,4.25
2022-08-03T19:46:30.425Z,4.85
2022-08-03T19:49:14.500Z,3.60
2022-08-03T19:52:01.313Z,5.22
2022-08-03T19:54:52.779Z,4.60
2022-08-03T19:57:24.161Z,4.43
2022-08-03T19:59:53.483Z,5.30
2022-08-03T20:02:26.313Z,4.30
2022-08-03T20:04:57.062Z,4.68
2022-08-03T20:07:25.901Z,4.18
2022-08-03T20:09:56.149Z,8.85
2022-08-03T20:12:29.105Z,4.40
2022-08-03T20:14:57.911Z,4.90
2022-08-03T20:17:54.728Z,7.13
2022-08-03T20:20:12.835Z,5.25
2022-08-03T20:22:46.210Z,6.95
2022-08-03T20:25:20.729Z,7.13
2022-08-03T20:28:08.286Z,5.23
2022-08-03T20:30:42.567Z,7.10
2022-08-03T20:33:10.404Z,6.53
2022-08-03T20:35:37.419Z,5.28
2022-08-03T20:38:04.299Z,5.43
2022-08-03T20:40:31.668Z,5.37
2022-08-03T20:42:59.799Z,7.47
2022-08-03T20:46:00.027Z,5.03
2022-08-03T20:48:17.314Z,6.40
2022-08-03T20:50:49.155Z,5.60
2022-08-03T20:53:31.174Z,6.23
2022-08-03T20:56:04.702Z,8.43
2022-08-03T20:58:32.699Z,5.60
2022-08-03T21:01:00.579Z,6.35
2022-08-03T21:03:40.569Z,6.03
2022-08-03T21:06:12.138Z,6.23
2022-08-03T21:08:47.032Z,7.18
2022-08-03T21:11:19.149Z,5.40
2022-08-03T21:13:58.547Z,6.63
2022-08-03T21:16:28.984Z,6.35
2022-08-03T21:18:59.597Z,5.20
2022-08-03T21:21:30.139Z,6.88
2022-08-03T21:23:58.987Z,6.47
2022-08-03T21:26:27.230Z,5.10
2022-08-03T21:28:56.180Z,5.65
2022-08-03T21:31:25.144Z,6.70
2022-08-03T21:34:02.317Z,6.85
2022-08-03T21:36:33.091Z,5.28
2022-08-03T21:39:01.512Z,6.68
2022-08-03T21:41:30.887Z,4.93
2022-08-03T21:43:58.344Z,5.23
2022-08-03T21:46:27.383Z,5.30
2022-08-03T21:50:07.692Z,4.82
2022-08-03T21:51:49.519Z,5.45
2022-08-03T21:54:17.849Z,5.45
2022-08-03T21:56:47.419Z,5.47
2022-08-03T21:59:19.681Z,5.28
2022-08-03T22:01:49.393Z,6.20
2022-08-03T22:04:55.738Z,6.82
2022-08-03T22:07:08.563Z,5.45
2022-08-03T22:09:36.255Z,5.20
2022-08-03T22:12:03.563Z,5.93
2022-08-03T22:14:32.822Z,6.63
2022-08-03T22:17:00.725Z,5.13
2022-08-03T22:19:30.349Z,4.88
2022-08-03T22:21:58.844Z,7.13
2022-08-03T22:24:29.255Z,6.28
2022-08-03T22:27:15.099Z,6.22
2022-08-03T22:29:42.620Z,5.90
2022-08-03T22:32:09.692Z,9.10
2022-08-03T22:34:37.469Z,10.27
2022-08-03T22:37:05.064Z,8.32
2022-08-03T22:39:32.303Z,7.68
2022-08-03T22:41:59.834Z,6.97
2022-08-03T22:44:27.734Z,5.75
2022-08-03T22:46:55.623Z,7.00
2022-08-03T22:49:23.028Z,9.32
2022-08-03T22:51:51.946Z,7.50
2022-08-03T22:54:19.026Z,8.35
2022-08-03T22:56:46.962Z,7.63
2022-08-03T22:59:38.791Z,5.97
2022-08-03T23:02:20.211Z,7.30
2022-08-03T23:04:55.022Z,5.78
2022-08-03T23:07:31.679Z,7.57
2022-08-03T23:10:01.742Z,7.32
2022-08-03T23:12:30.684Z,6.60
2022-08-03T23:15:05.355Z,7.22
2022-08-03T23:17:33.002Z,8.80
2022-08-03T23:20:06.326Z,5.05
2022-08-03T23:22:35.232Z,5.15
2022-08-03T23:25:04.783Z,6.00
2022-08-03T23:27:33.194Z,5.18
2022-08-03T23:30:02.010Z,6.80
2022-08-03T23:32:30.884Z,6.65
2022-08-03T23:35:20.880Z,6.22
2022-08-03T23:38:04.349Z,5.60
2022-08-03T23:40:37.612Z,5.32
2022-08-03T23:43:05.513Z,6.25
2022-08-03T23:45:36.015Z,7.68
2022-08-03T23:48:02.847Z,5.28
2022-08-03T23:50:40.946Z,6.10
2022-08-03T23:53:16.977Z,5.65
2022-08-03T23:55:58.587Z,7.35
2022-08-03T23:58:47.426Z,6.30
